sensor_id;sensor_type;location;lat;lon;timestamp;P1;durP1;ratioP1;P2;durP2;ratioP2
41305;SDS011;27051;50.376;19.152;2022-08-19T00:01:49;22.48;;;12.93;;
41305;SDS011;27051;50.376;19.152;2022-08-19T00:04:20;21.02;;;13.05;;
41305;SDS011;27051;50.376;19.152;2022-08-19T00:06:50;22.25;;;12.88;;
41305;SDS011;27051;50.376;19.152;2022-08-19T00:09:18;20.85;;;12.68;;
41305;SDS011;27051;50.376;19.152;2022-08-19T00:11:47;23.00;;;14.05;;
41305;SDS011;27051;50.376;19.152;2022-08-19T00:14:14;21.07;;;13.62;;
41305;SDS011;27051;50.376;19.152;2022-08-19T00:16:44;23.40;;;14.35;;
41305;SDS011;27051;50.376;19.152;2022-08-19T00:19:13;21.68;;;14.13;;
41305;SDS011;27051;50.376;19.152;2022-08-19T00:21:41;22.93;;;14.23;;
41305;SDS011;27051;50.376;19.152;2022-08-19T00:24:09;22.05;;;13.95;;
41305;SDS011;27051;50.376;19.152;2022-08-19T00:26:39;24.23;;;14.03;;
41305;SDS011;27051;50.376;19.152;2022-08-19T00:29:08;24.12;;;13.00;;
41305;SDS011;27051;50.376;19.152;2022-08-19T00:31:37;21.95;;;14.07;;
41305;SDS011;27051;50.376;19.152;2022-08-19T00:34:05;23.15;;;14.33;;
41305;SDS011;27051;50.376;19.152;2022-08-19T00:36:32;20.05;;;13.18;;
41305;SDS011;27051;50.376;19.152;2022-08-19T00:38:58;21.23;;;13.55;;
41305;SDS011;27051;50.376;19.152;2022-08-19T00:41:26;22.07;;;14.07;;
41305;SDS011;27051;50.376;19.152;2022-08-19T00:43:58;25.48;;;14.07;;
41305;SDS011;27051;50.376;19.152;2022-08-19T00:46:32;24.12;;;13.35;;
41305;SDS011;27051;50.376;19.152;2022-08-19T00:49:02;27.10;;;14.47;;
41305;SDS011;27051;50.376;19.152;2022-08-19T00:51:39;24.20;;;14.35;;
41305;SDS011;27051;50.376;19.152;2022-08-19T00:54:08;24.12;;;14.35;;
41305;SDS011;27051;50.376;19.152;2022-08-19T00:56:35;24.55;;;13.85;;
41305;SDS011;27051;50.376;19.152;2022-08-19T00:59:03;23.02;;;14.25;;
41305;SDS011;27051;50.376;19.152;2022-08-19T01:01:31;21.12;;;14.43;;
41305;SDS011;27051;50.376;19.152;2022-08-19T01:03:58;22.45;;;14.68;;
41305;SDS011;27051;50.376;19.152;2022-08-19T01:06:26;21.93;;;13.68;;
41305;SDS011;27051;50.376;19.152;2022-08-19T01:08:54;24.12;;;13.88;;
41305;SDS011;27051;50.376;19.152;2022-08-19T01:11:21;21.12;;;13.50;;
41305;SDS011;27051;50.376;19.152;2022-08-19T01:13:48;20.48;;;13.88;;
41305;SDS011;27051;50.376;19.152;2022-08-19T01:16:17;20.52;;;13.60;;
41305;SDS011;27051;50.376;19.152;2022-08-19T01:18:49;23.25;;;14.03;;
41305;SDS011;27051;50.376;19.152;2022-08-19T01:21:22;22.98;;;14.13;;
41305;SDS011;27051;50.376;19.152;2022-08-19T01:23:52;21.73;;;13.60;;
41305;SDS011;27051;50.376;19.152;2022-08-19T01:26:20;20.82;;;12.82;;
41305;SDS011;27051;50.376;19.152;2022-08-19T01:28:51;23.32;;;14.30;;
41305;SDS011;27051;50.376;19.152;2022-08-19T01:31:22;20.55;;;13.90;;
41305;SDS011;27051;50.376;19.152;2022-08-19T01:33:52;24.55;;;14.87;;
41305;SDS011;27051;50.376;19.152;2022-08-19T01:36:30;23.18;;;14.75;;
41305;SDS011;27051;50.376;19.152;2022-08-19T01:39:01;20.88;;;13.65;;
41305;SDS011;27051;50.376;19.152;2022-08-19T01:41:32;23.80;;;15.48;;
41305;SDS011;27051;50.376;19.152;2022-08-19T01:44:00;26.25;;;16.95;;
41305;SDS011;27051;50.376;19.152;2022-08-19T01:46:27;26.82;;;15.88;;
41305;SDS011;27051;50.376;19.152;2022-08-19T01:48:54;25.43;;;15.95;;
41305;SDS011;27051;50.376;19.152;2022-08-19T01:51:21;24.55;;;15.25;;
41305;SDS011;27051;50.376;19.152;2022-08-19T01:53:48;23.07;;;15.28;;
41305;SDS011;27051;50.376;19.152;2022-08-19T01:56:17;23.27;;;15.03;;
41305;SDS011;27051;50.376;19.152;2022-08-19T01:58:50;26.20;;;14.85;;
41305;SDS011;27051;50.376;19.152;2022-08-19T02:01:21;23.18;;;15.50;;
41305;SDS011;27051;50.376;19.152;2022-08-19T02:03:48;23.18;;;15.45;;
41305;SDS011;27051;50.376;19.152;2022-08-19T02:06:15;27.20;;;15.85;;
41305;SDS011;27051;50.376;19.152;2022-08-19T02:08:42;28.57;;;16.23;;
41305;SDS011;27051;50.376;19.152;2022-08-19T02:11:09;25.65;;;16.07;;
41305;SDS011;27051;50.376;19.152;2022-08-19T02:13:50;24.17;;;15.43;;
41305;SDS011;27051;50.376;19.152;2022-08-19T02:16:17;23.98;;;15.72;;
41305;SDS011;27051;50.376;19.152;2022-08-19T02:18:46;22.82;;;15.08;;
41305;SDS011;27051;50.376;19.152;2022-08-19T02:21:14;26.30;;;15.88;;
41305;SDS011;27051;50.376;19.152;2022-08-19T02:23:46;25.25;;;14.87;;
41305;SDS011;27051;50.376;19.152;2022-08-19T02:26:14;23.85;;;15.20;;
41305;SDS011;27051;50.376;19.152;2022-08-19T02:28:42;24.27;;;15.13;;
41305;SDS011;27051;50.376;19.152;2022-08-19T02:31:13;25.17;;;14.95;;
41305;SDS011;27051;50.376;19.152;2022-08-19T02:33:44;26.10;;;15.55;;
41305;SDS011;27051;50.376;19.152;2022-08-19T02:36:13;23.25;;;16.05;;
41305;SDS011;27051;50.376;19.152;2022-08-19T02:38:43;26.15;;;16.12;;
41305;SDS011;27051;50.376;19.152;2022-08-19T02:41:14;23.10;;;16.05;;
41305;SDS011;27051;50.376;19.152;2022-08-19T02:43:44;23.15;;;15.58;;
41305;SDS011;27051;50.376;19.152;2022-08-19T02:46:15;23.50;;;15.72;;
41305;SDS011;27051;50.376;19.152;2022-08-19T02:48:47;26.42;;;14.58;;
41305;SDS011;27051;50.376;19.152;2022-08-19T02:51:19;23.65;;;15.48;;
41305;SDS011;27051;50.376;19.152;2022-08-19T02:56:17;26.93;;;15.60;;
41305;SDS011;27051;50.376;19.152;2022-08-19T02:58:45;25.85;;;16.17;;
41305;SDS011;27051;50.376;19.152;2022-08-19T03:01:27;23.92;;;14.75;;
41305;SDS011;27051;50.376;19.152;2022-08-19T03:04:02;23.22;;;15.48;;
41305;SDS011;27051;50.376;19.152;2022-08-19T03:06:32;25.85;;;15.90;;
41305;SDS011;27051;50.376;19.152;2022-08-19T03:09:00;20.15;;;14.65;;
41305;SDS011;27051;50.376;19.152;2022-08-19T03:11:28;21.20;;;14.03;;
41305;SDS011;27051;50.376;19.152;2022-08-19T03:13:57;23.70;;;15.10;;
41305;SDS011;27051;50.376;19.152;2022-08-19T03:16:26;24.43;;;13.98;;
41305;SDS011;27051;50.376;19.152;2022-08-19T03:18:57;22.93;;;14.63;;
41305;SDS011;27051;50.376;19.152;2022-08-19T03:21:26;21.35;;;13.50;;
41305;SDS011;27051;50.376;19.152;2022-08-19T03:23:57;25.80;;;14.68;;
41305;SDS011;27051;50.376;19.152;2022-08-19T03:26:31;20.85;;;12.73;;
41305;SDS011;27051;50.376;19.152;2022-08-19T03:29:01;22.27;;;14.75;;
41305;SDS011;27051;50.376;19.152;2022-08-19T03:31:30;21.93;;;13.62;;
41305;SDS011;27051;50.376;19.152;2022-08-19T03:33:57;23.10;;;13.88;;
41305;SDS011;27051;50.376;19.152;2022-08-19T03:36:25;22.75;;;13.28;;
41305;SDS011;27051;50.376;19.152;2022-08-19T03:38:58;19.50;;;13.43;;
41305;SDS011;27051;50.376;19.152;2022-08-19T03:41:30;22.32;;;13.90;;
41305;SDS011;27051;50.376;19.152;2022-08-19T03:43:56;23.52;;;14.00;;
41305;SDS011;27051;50.376;19.152;2022-08-19T03:46:28;19.92;;;13.08;;
41305;SDS011;27051;50.376;19.152;2022-08-19T03:48:59;25.57;;;14.83;;
41305;SDS011;27051;50.376;19.152;2022-08-19T03:51:30;24.00;;;15.98;;
41305;SDS011;27051;50.376;19.152;2022-08-19T03:53:59;23.60;;;15.15;;
41305;SDS011;27051;50.376;19.152;2022-08-19T03:56:29;27.57;;;15.97;;
41305;SDS011;27051;50.376;19.152;2022-08-19T03:58:57;23.90;;;14.18;;
41305;SDS011;27051;50.376;19.152;2022-08-19T04:01:27;25.43;;;15.08;;
41305;SDS011;27051;50.376;19.152;2022-08-19T04:03:55;23.02;;;14.28;;
41305;SDS011;27051;50.376;19.152;2022-08-19T04:06:30;22.40;;;13.55;;
41305;SDS011;27051;50.376;19.152;2022-08-19T04:08:56;24.35;;;15.58;;
41305;SDS011;27051;50.376;19.152;2022-08-19T04:11:26;24.85;;;15.53;;
41305;SDS011;27051;50.376;19.152;2022-08-19T04:14:10;24.77;;;15.45;;
41305;SDS011;27051;50.376;19.152;2022-08-19T04:16:40;23.35;;;15.05;;
41305;SDS011;27051;50.376;19.152;2022-08-19T04:19:07;25.12;;;15.00;;
41305;SDS011;27051;50.376;19.152;2022-08-19T04:21:34;24.30;;;15.55;;
41305;SDS011;27051;50.376;19.152;2022-08-19T04:24:02;23.52;;;15.58;;
41305;SDS011;27051;50.376;19.152;2022-08-19T04:26:33;23.18;;;14.98;;
41305;SDS011;27051;50.376;19.152;2022-08-19T04:29:03;22.45;;;14.90;;
41305;SDS011;27051;50.376;19.152;2022-08-19T04:31:33;25.00;;;14.93;;
41305;SDS011;27051;50.376;19.152;2022-08-19T04:34:01;21.85;;;13.28;;
41305;SDS011;27051;50.376;19.152;2022-08-19T04:36:34;21.52;;;14.15;;
41305;SDS011;27051;50.376;19.152;2022-08-19T04:39:05;21.95;;;13.93;;
41305;SDS011;27051;50.376;19.152;2022-08-19T04:41:37;22.80;;;13.05;;
41305;SDS011;27051;50.376;19.152;2022-08-19T04:44:04;22.15;;;13.83;;
41305;SDS011;27051;50.376;19.152;2022-08-19T04:46:31;22.40;;;13.32;;
41305;SDS011;27051;50.376;19.152;2022-08-19T04:49:00;22.10;;;14.03;;
41305;SDS011;27051;50.376;19.152;2022-08-19T04:51:28;20.30;;;12.68;;
41305;SDS011;27051;50.376;19.152;2022-08-19T04:53:55;23.62;;;13.83;;
41305;SDS011;27051;50.376;19.152;2022-08-19T04:56:22;20.90;;;13.08;;
41305;SDS011;27051;50.376;19.152;2022-08-19T04:58:49;22.98;;;14.40;;
41305;SDS011;27051;50.376;19.152;2022-08-19T05:01:18;22.20;;;13.10;;
41305;SDS011;27051;50.376;19.152;2022-08-19T05:03:54;21.37;;;13.98;;
41305;SDS011;27051;50.376;19.152;2022-08-19T05:06:22;24.00;;;14.75;;
41305;SDS011;27051;50.376;19.152;2022-08-19T05:08:50;19.80;;;12.95;;
41305;SDS011;27051;50.376;19.152;2022-08-19T05:11:20;25.77;;;13.98;;
41305;SDS011;27051;50.376;19.152;2022-08-19T05:13:51;25.20;;;14.05;;
41305;SDS011;27051;50.376;19.152;2022-08-19T05:16:18;21.95;;;13.80;;
41305;SDS011;27051;50.376;19.152;2022-08-19T05:18:48;22.42;;;13.72;;
41305;SDS011;27051;50.376;19.152;2022-08-19T05:21:16;21.02;;;13.08;;
41305;SDS011;27051;50.376;19.152;2022-08-19T05:23:46;21.47;;;13.77;;
41305;SDS011;27051;50.376;19.152;2022-08-19T05:26:12;24.72;;;13.50;;
41305;SDS011;27051;50.376;19.152;2022-08-19T05:28:39;23.15;;;13.38;;
41305;SDS011;27051;50.376;19.152;2022-08-19T05:31:06;23.42;;;13.05;;
41305;SDS011;27051;50.376;19.152;2022-08-19T05:33:33;21.87;;;13.18;;
41305;SDS011;27051;50.376;19.152;2022-08-19T05:36:00;21.25;;;12.95;;
41305;SDS011;27051;50.376;19.152;2022-08-19T05:38:29;23.05;;;12.45;;
41305;SDS011;27051;50.376;19.152;2022-08-19T05:40:56;21.20;;;13.08;;
41305;SDS011;27051;50.376;19.152;2022-08-19T05:43:22;27.82;;;12.88;;
41305;SDS011;27051;50.376;19.152;2022-08-19T05:45:49;20.82;;;12.47;;
41305;SDS011;27051;50.376;19.152;2022-08-19T05:48:15;17.82;;;11.50;;
41305;SDS011;27051;50.376;19.152;2022-08-19T05:50:42;20.72;;;12.30;;
41305;SDS011;27051;50.376;19.152;2022-08-19T05:53:09;19.45;;;11.15;;
41305;SDS011;27051;50.376;19.152;2022-08-19T05:55:37;23.83;;;11.90;;
41305;SDS011;27051;50.376;19.152;2022-08-19T05:58:03;25.48;;;12.58;;
41305;SDS011;27051;50.376;19.152;2022-08-19T06:00:30;19.80;;;11.48;;
41305;SDS011;27051;50.376;19.152;2022-08-19T06:02:57;21.57;;;11.40;;
41305;SDS011;27051;50.376;19.152;2022-08-19T06:05:24;19.70;;;11.50;;
41305;SDS011;27051;50.376;19.152;2022-08-19T06:07:51;19.48;;;10.70;;
41305;SDS011;27051;50.376;19.152;2022-08-19T06:10:17;19.57;;;11.12;;
41305;SDS011;27051;50.376;19.152;2022-08-19T06:12:44;16.90;;;10.90;;
41305;SDS011;27051;50.376;19.152;2022-08-19T06:15:12;18.80;;;10.65;;
41305;SDS011;27051;50.376;19.152;2022-08-19T06:17:40;16.52;;;10.18;;
41305;SDS011;27051;50.376;19.152;2022-08-19T06:20:09;18.17;;;10.85;;
41305;SDS011;27051;50.376;19.152;2022-08-19T06:22:42;16.32;;;10.45;;
41305;SDS011;27051;50.376;19.152;2022-08-19T06:27:40;16.62;;;10.68;;
41305;SDS011;27051;50.376;19.152;2022-08-19T06:30:08;17.73;;;10.85;;
41305;SDS011;27051;50.376;19.152;2022-08-19T06:32:36;22.35;;;11.05;;
41305;SDS011;27051;50.376;19.152;2022-08-19T06:35:03;16.85;;;9.90;;
41305;SDS011;27051;50.376;19.152;2022-08-19T06:37:32;18.48;;;9.53;;
41305;SDS011;27051;50.376;19.152;2022-08-19T06:39:59;14.90;;;10.75;;
41305;SDS011;27051;50.376;19.152;2022-08-19T06:42:26;19.37;;;11.33;;
41305;SDS011;27051;50.376;19.152;2022-08-19T06:44:53;16.85;;;10.25;;
41305;SDS011;27051;50.376;19.152;2022-08-19T06:47:20;13.70;;;10.15;;
41305;SDS011;27051;50.376;19.152;2022-08-19T06:49:48;16.25;;;10.18;;
41305;SDS011;27051;50.376;19.152;2022-08-19T06:52:15;14.75;;;9.78;;
41305;SDS011;27051;50.376;19.152;2022-08-19T06:54:41;16.35;;;10.80;;
41305;SDS011;27051;50.376;19.152;2022-08-19T06:57:08;19.02;;;10.70;;
41305;SDS011;27051;50.376;19.152;2022-08-19T06:59:35;84.13;;;14.00;;
41305;SDS011;27051;50.376;19.152;2022-08-19T07:02:03;89.55;;;14.73;;
41305;SDS011;27051;50.376;19.152;2022-08-19T07:04:31;19.80;;;10.43;;
41305;SDS011;27051;50.376;19.152;2022-08-19T07:07:07;18.77;;;10.28;;
41305;SDS011;27051;50.376;19.152;2022-08-19T07:09:37;17.52;;;10.60;;
41305;SDS011;27051;50.376;19.152;2022-08-19T07:12:09;17.50;;;10.43;;
41305;SDS011;27051;50.376;19.152;2022-08-19T07:14:42;15.50;;;10.60;;
41305;SDS011;27051;50.376;19.152;2022-08-19T07:17:10;17.40;;;10.32;;
41305;SDS011;27051;50.376;19.152;2022-08-19T07:19:38;18.27;;;10.15;;
41305;SDS011;27051;50.376;19.152;2022-08-19T07:22:06;17.75;;;9.73;;
41305;SDS011;27051;50.376;19.152;2022-08-19T07:24:35;16.87;;;10.95;;
41305;SDS011;27051;50.376;19.152;2022-08-19T07:27:08;15.65;;;10.35;;
41305;SDS011;27051;50.376;19.152;2022-08-19T07:32:07;16.70;;;10.60;;
41305;SDS011;27051;50.376;19.152;2022-08-19T07:34:47;18.02;;;10.20;;
41305;SDS011;27051;50.376;19.152;2022-08-19T07:37:07;18.73;;;10.93;;
41305;SDS011;27051;50.376;19.152;2022-08-19T07:39:38;19.27;;;10.18;;
41305;SDS011;27051;50.376;19.152;2022-08-19T07:42:07;27.67;;;10.63;;
41305;SDS011;27051;50.376;19.152;2022-08-19T07:47:03;15.08;;;10.35;;
41305;SDS011;27051;50.376;19.152;2022-08-19T07:49:31;15.63;;;10.78;;
41305;SDS011;27051;50.376;19.152;2022-08-19T07:51:59;18.25;;;10.93;;
41305;SDS011;27051;50.376;19.152;2022-08-19T07:54:35;17.77;;;10.05;;
41305;SDS011;27051;50.376;19.152;2022-08-19T07:57:06;15.75;;;9.80;;
41305;SDS011;27051;50.376;19.152;2022-08-19T07:59:34;20.80;;;10.00;;
41305;SDS011;27051;50.376;19.152;2022-08-19T08:02:01;15.80;;;10.28;;
41305;SDS011;27051;50.376;19.152;2022-08-19T08:04:29;16.70;;;11.05;;
41305;SDS011;27051;50.376;19.152;2022-08-19T08:06:57;22.52;;;10.90;;
41305;SDS011;27051;50.376;19.152;2022-08-19T08:09:28;15.25;;;10.43;;
41305;SDS011;27051;50.376;19.152;2022-08-19T08:12:01;30.10;;;11.40;;
41305;SDS011;27051;50.376;19.152;2022-08-19T08:14:32;16.48;;;10.75;;
41305;SDS011;27051;50.376;19.152;2022-08-19T08:17:06;18.17;;;10.53;;
41305;SDS011;27051;50.376;19.152;2022-08-19T08:19:35;19.40;;;10.20;;
41305;SDS011;27051;50.376;19.152;2022-08-19T08:22:03;20.95;;;10.13;;
41305;SDS011;27051;50.376;19.152;2022-08-19T08:24:30;22.77;;;10.00;;
41305;SDS011;27051;50.376;19.152;2022-08-19T08:26:58;19.65;;;9.70;;
41305;SDS011;27051;50.376;19.152;2022-08-19T08:29:27;18.40;;;9.73;;
41305;SDS011;27051;50.376;19.152;2022-08-19T08:31:56;17.67;;;10.25;;
41305;SDS011;27051;50.376;19.152;2022-08-19T08:34:23;15.65;;;9.83;;
41305;SDS011;27051;50.376;19.152;2022-08-19T08:36:50;18.67;;;9.95;;
41305;SDS011;27051;50.376;19.152;2022-08-19T08:39:19;17.25;;;9.83;;
41305;SDS011;27051;50.376;19.152;2022-08-19T08:44:38;19.90;;;9.98;;
41305;SDS011;27051;50.376;19.152;2022-08-19T08:47:19;17.70;;;9.33;;
41305;SDS011;27051;50.376;19.152;2022-08-19T08:49:50;17.02;;;9.23;;
41305;SDS011;27051;50.376;19.152;2022-08-19T08:52:39;14.58;;;9.23;;
41305;SDS011;27051;50.376;19.152;2022-08-19T08:55:15;19.70;;;9.73;;
41305;SDS011;27051;50.376;19.152;2022-08-19T09:00:20;12.60;;;9.00;;
41305;SDS011;27051;50.376;19.152;2022-08-19T09:02:50;14.87;;;8.90;;
41305;SDS011;27051;50.376;19.152;2022-08-19T09:05:18;15.93;;;8.95;;
41305;SDS011;27051;50.376;19.152;2022-08-19T09:07:49;18.67;;;8.83;;
41305;SDS011;27051;50.376;19.152;2022-08-19T09:10:37;18.42;;;8.93;;
41305;SDS011;27051;50.376;19.152;2022-08-19T09:15:58;16.45;;;8.30;;
41305;SDS011;27051;50.376;19.152;2022-08-19T09:18:44;19.12;;;8.10;;
41305;SDS011;27051;50.376;19.152;2022-08-19T09:21:15;12.90;;;7.45;;
41305;SDS011;27051;50.376;19.152;2022-08-19T09:23:42;16.35;;;8.18;;
41305;SDS011;27051;50.376;19.152;2022-08-19T09:26:10;19.07;;;8.08;;
41305;SDS011;27051;50.376;19.152;2022-08-19T09:28:41;15.83;;;7.65;;
41305;SDS011;27051;50.376;19.152;2022-08-19T09:31:11;19.40;;;8.33;;
41305;SDS011;27051;50.376;19.152;2022-08-19T09:33:41;17.80;;;8.33;;
41305;SDS011;27051;50.376;19.152;2022-08-19T09:36:09;13.32;;;8.23;;
41305;SDS011;27051;50.376;19.152;2022-08-19T09:38:39;14.03;;;8.10;;
41305;SDS011;27051;50.376;19.152;2022-08-19T09:41:07;16.82;;;7.78;;
41305;SDS011;27051;50.376;19.152;2022-08-19T09:43:42;14.87;;;8.03;;
41305;SDS011;27051;50.376;19.152;2022-08-19T09:46:12;18.67;;;8.58;;
41305;SDS011;27051;50.376;19.152;2022-08-19T09:48:40;16.15;;;8.40;;
41305;SDS011;27051;50.376;19.152;2022-08-19T09:51:10;16.90;;;8.55;;
41305;SDS011;27051;50.376;19.152;2022-08-19T09:53:39;16.25;;;8.78;;
41305;SDS011;27051;50.376;19.152;2022-08-19T09:56:06;17.92;;;7.90;;
41305;SDS011;27051;50.376;19.152;2022-08-19T09:58:34;17.32;;;7.80;;
41305;SDS011;27051;50.376;19.152;2022-08-19T10:01:03;14.43;;;7.87;;
41305;SDS011;27051;50.376;19.152;2022-08-19T10:03:32;15.80;;;8.15;;
41305;SDS011;27051;50.376;19.152;2022-08-19T10:06:02;20.45;;;8.68;;
41305;SDS011;27051;50.376;19.152;2022-08-19T10:08:32;19.32;;;8.20;;
41305;SDS011;27051;50.376;19.152;2022-08-19T10:11:02;13.62;;;7.72;;
41305;SDS011;27051;50.376;19.152;2022-08-19T10:13:30;15.28;;;7.90;;
41305;SDS011;27051;50.376;19.152;2022-08-19T10:16:03;12.75;;;7.72;;
41305;SDS011;27051;50.376;19.152;2022-08-19T10:18:33;16.00;;;7.55;;
41305;SDS011;27051;50.376;19.152;2022-08-19T10:21:03;14.18;;;7.90;;
41305;SDS011;27051;50.376;19.152;2022-08-19T10:23:45;14.58;;;8.43;;
41305;SDS011;27051;50.376;19.152;2022-08-19T10:26:20;16.62;;;7.10;;
41305;SDS011;27051;50.376;19.152;2022-08-19T10:28:48;17.95;;;7.75;;
41305;SDS011;27051;50.376;19.152;2022-08-19T10:31:17;16.12;;;8.00;;
41305;SDS011;27051;50.376;19.152;2022-08-19T10:33:50;13.28;;;6.42;;
41305;SDS011;27051;50.376;19.152;2022-08-19T10:36:19;9.55;;;6.67;;
41305;SDS011;27051;50.376;19.152;2022-08-19T10:38:49;11.00;;;6.67;;
41305;SDS011;27051;50.376;19.152;2022-08-19T10:41:23;15.88;;;7.62;;
41305;SDS011;27051;50.376;19.152;2022-08-19T10:43:56;13.22;;;6.65;;
41305;SDS011;27051;50.376;19.152;2022-08-19T10:46:27;10.05;;;5.80;;
41305;SDS011;27051;50.376;19.152;2022-08-19T10:48:55;13.68;;;6.15;;
41305;SDS011;27051;50.376;19.152;2022-08-19T10:51:22;8.95;;;5.55;;
41305;SDS011;27051;50.376;19.152;2022-08-19T10:53:49;12.35;;;7.05;;
41305;SDS011;27051;50.376;19.152;2022-08-19T10:56:18;15.10;;;6.40;;
41305;SDS011;27051;50.376;19.152;2022-08-19T10:58:45;10.13;;;6.33;;
41305;SDS011;27051;50.376;19.152;2022-08-19T11:01:11;13.58;;;6.65;;
41305;SDS011;27051;50.376;19.152;2022-08-19T11:03:38;10.78;;;6.40;;
41305;SDS011;27051;50.376;19.152;2022-08-19T11:06:06;11.45;;;6.90;;
41305;SDS011;27051;50.376;19.152;2022-08-19T11:08:34;10.32;;;6.28;;
41305;SDS011;27051;50.376;19.152;2022-08-19T11:11:04;10.63;;;6.13;;
41305;SDS011;27051;50.376;19.152;2022-08-19T11:13:34;9.23;;;6.53;;
41305;SDS011;27051;50.376;19.152;2022-08-19T11:16:05;9.65;;;6.78;;
41305;SDS011;27051;50.376;19.152;2022-08-19T11:18:37;10.98;;;6.33;;
41305;SDS011;27051;50.376;19.152;2022-08-19T11:21:09;9.55;;;5.97;;
41305;SDS011;27051;50.376;19.152;2022-08-19T11:23:42;12.45;;;6.50;;
41305;SDS011;27051;50.376;19.152;2022-08-19T11:26:11;9.98;;;5.70;;
41305;SDS011;27051;50.376;19.152;2022-08-19T11:28:40;13.38;;;5.83;;
41305;SDS011;27051;50.376;19.152;2022-08-19T11:31:14;13.38;;;6.15;;
41305;SDS011;27051;50.376;19.152;2022-08-19T11:33:45;11.35;;;6.12;;
41305;SDS011;27051;50.376;19.152;2022-08-19T11:36:14;13.18;;;6.03;;
41305;SDS011;27051;50.376;19.152;2022-08-19T11:38:41;10.98;;;6.37;;
41305;SDS011;27051;50.376;19.152;2022-08-19T11:41:08;11.28;;;5.95;;
41305;SDS011;27051;50.376;19.152;2022-08-19T11:43:35;8.78;;;5.85;;
41305;SDS011;27051;50.376;19.152;2022-08-19T11:46:06;13.17;;;6.23;;
41305;SDS011;27051;50.376;19.152;2022-08-19T11:48:37;14.75;;;6.75;;
41305;SDS011;27051;50.376;19.152;2022-08-19T11:51:10;11.97;;;5.92;;
41305;SDS011;27051;50.376;19.152;2022-08-19T11:53:37;9.00;;;6.10;;
41305;SDS011;27051;50.376;19.152;2022-08-19T11:56:05;10.98;;;7.25;;
41305;SDS011;27051;50.376;19.152;2022-08-19T11:58:35;11.30;;;6.25;;
41305;SDS011;27051;50.376;19.152;2022-08-19T12:01:09;15.70;;;7.72;;
41305;SDS011;27051;50.376;19.152;2022-08-19T12:03:39;12.43;;;7.62;;
41305;SDS011;27051;50.376;19.152;2022-08-19T12:06:07;11.15;;;7.20;;
41305;SDS011;27051;50.376;19.152;2022-08-19T12:08:37;16.40;;;7.30;;
41305;SDS011;27051;50.376;19.152;2022-08-19T12:11:05;13.50;;;8.45;;
41305;SDS011;27051;50.376;19.152;2022-08-19T12:13:41;17.27;;;7.50;;
41305;SDS011;27051;50.376;19.152;2022-08-19T12:16:09;9.25;;;6.33;;
41305;SDS011;27051;50.376;19.152;2022-08-19T12:18:40;10.32;;;6.60;;
41305;SDS011;27051;50.376;19.152;2022-08-19T12:21:09;11.60;;;6.47;;
41305;SDS011;27051;50.376;19.152;2022-08-19T12:23:36;10.20;;;6.50;;
41305;SDS011;27051;50.376;19.152;2022-08-19T12:26:04;14.25;;;6.42;;
41305;SDS011;27051;50.376;19.152;2022-08-19T12:28:30;14.38;;;6.00;;
41305;SDS011;27051;50.376;19.152;2022-08-19T12:30:58;10.90;;;6.85;;
41305;SDS011;27051;50.376;19.152;2022-08-19T12:33:25;12.58;;;6.50;;
41305;SDS011;27051;50.376;19.152;2022-08-19T12:35:52;11.78;;;6.45;;
41305;SDS011;27051;50.376;19.152;2022-08-19T12:38:20;12.47;;;7.67;;
41305;SDS011;27051;50.376;19.152;2022-08-19T12:40:48;10.70;;;6.03;;
41305;SDS011;27051;50.376;19.152;2022-08-19T12:43:15;13.55;;;6.87;;
41305;SDS011;27051;50.376;19.152;2022-08-19T12:45:42;14.05;;;6.65;;
41305;SDS011;27051;50.376;19.152;2022-08-19T12:48:09;13.53;;;7.10;;
41305;SDS011;27051;50.376;19.152;2022-08-19T12:50:35;14.53;;;6.75;;
41305;SDS011;27051;50.376;19.152;2022-08-19T12:53:02;15.95;;;6.47;;
41305;SDS011;27051;50.376;19.152;2022-08-19T12:55:29;11.48;;;6.83;;
41305;SDS011;27051;50.376;19.152;2022-08-19T12:57:56;17.73;;;7.30;;
41305;SDS011;27051;50.376;19.152;2022-08-19T13:00:23;12.43;;;6.90;;
41305;SDS011;27051;50.376;19.152;2022-08-19T13:02:51;14.50;;;6.45;;
41305;SDS011;27051;50.376;19.152;2022-08-19T13:05:20;13.50;;;6.67;;
41305;SDS011;27051;50.376;19.152;2022-08-19T13:07:50;12.53;;;6.95;;
41305;SDS011;27051;50.376;19.152;2022-08-19T13:10:20;11.57;;;6.40;;
41305;SDS011;27051;50.376;19.152;2022-08-19T13:12:49;11.57;;;6.55;;
41305;SDS011;27051;50.376;19.152;2022-08-19T13:15:18;10.95;;;6.08;;
41305;SDS011;27051;50.376;19.152;2022-08-19T13:20:17;8.73;;;5.73;;
41305;SDS011;27051;50.376;19.152;2022-08-19T13:22:46;10.78;;;5.90;;
41305;SDS011;27051;50.376;19.152;2022-08-19T13:25:15;10.72;;;6.17;;
41305;SDS011;27051;50.376;19.152;2022-08-19T13:27:49;12.68;;;5.67;;
41305;SDS011;27051;50.376;19.152;2022-08-19T13:30:18;11.70;;;5.75;;
41305;SDS011;27051;50.376;19.152;2022-08-19T13:32:46;16.67;;;6.25;;
41305;SDS011;27051;50.376;19.152;2022-08-19T13:35:12;13.20;;;6.20;;
41305;SDS011;27051;50.376;19.152;2022-08-19T13:37:39;17.40;;;5.97;;
41305;SDS011;27051;50.376;19.152;2022-08-19T13:40:14;13.68;;;5.67;;
41305;SDS011;27051;50.376;19.152;2022-08-19T13:42:45;10.55;;;5.25;;
41305;SDS011;27051;50.376;19.152;2022-08-19T13:45:14;12.65;;;5.60;;
41305;SDS011;27051;50.376;19.152;2022-08-19T13:47:49;14.45;;;5.65;;
41305;SDS011;27051;50.376;19.152;2022-08-19T13:50:16;9.90;;;5.92;;
41305;SDS011;27051;50.376;19.152;2022-08-19T13:52:47;11.65;;;5.25;;
41305;SDS011;27051;50.376;19.152;2022-08-19T13:55:14;13.88;;;5.58;;
41305;SDS011;27051;50.376;19.152;2022-08-19T13:57:42;13.50;;;6.45;;
41305;SDS011;27051;50.376;19.152;2022-08-19T14:00:10;8.80;;;5.17;;
41305;SDS011;27051;50.376;19.152;2022-08-19T14:02:41;11.88;;;5.15;;
41305;SDS011;27051;50.376;19.152;2022-08-19T14:05:17;13.95;;;5.62;;
41305;SDS011;27051;50.376;19.152;2022-08-19T14:07:45;11.45;;;5.37;;
41305;SDS011;27051;50.376;19.152;2022-08-19T14:10:12;13.95;;;5.40;;
41305;SDS011;27051;50.376;19.152;2022-08-19T14:12:41;11.15;;;5.25;;
41305;SDS011;27051;50.376;19.152;2022-08-19T14:15:09;10.48;;;5.35;;
41305;SDS011;27051;50.376;19.152;2022-08-19T14:17:38;17.15;;;6.47;;
41305;SDS011;27051;50.376;19.152;2022-08-19T14:20:08;12.00;;;5.62;;
41305;SDS011;27051;50.376;19.152;2022-08-19T14:22:38;16.42;;;6.12;;
41305;SDS011;27051;50.376;19.152;2022-08-19T14:27:37;18.20;;;7.17;;
41305;SDS011;27051;50.376;19.152;2022-08-19T14:30:06;9.77;;;5.93;;
41305;SDS011;27051;50.376;19.152;2022-08-19T14:32:36;18.60;;;6.28;;
41305;SDS011;27051;50.376;19.152;2022-08-19T14:35:04;10.93;;;5.90;;
41305;SDS011;27051;50.376;19.152;2022-08-19T14:37:33;13.88;;;6.45;;
41305;SDS011;27051;50.376;19.152;2022-08-19T14:40:02;12.40;;;5.55;;
41305;SDS011;27051;50.376;19.152;2022-08-19T14:42:31;13.65;;;5.70;;
41305;SDS011;27051;50.376;19.152;2022-08-19T14:45:00;10.63;;;5.70;;
41305;SDS011;27051;50.376;19.152;2022-08-19T14:47:27;11.48;;;6.33;;
41305;SDS011;27051;50.376;19.152;2022-08-19T14:49:54;13.25;;;6.22;;
41305;SDS011;27051;50.376;19.152;2022-08-19T14:52:21;16.90;;;6.60;;